Time;durP1;ratioP1;P1;durP2;ratioP2;P2;SDS_P1;SDS_P2;PMS_P1;PMS_P2;Temp;Humidity;BMP_temperature;BMP_pressure;BME280_temperature;BME280_humidity;BME280_pressure;Samples;Min_cycle;Max_cycle;Signal;HPM_P1;HPM_P2
2022/03/12 00:01:27;;;;;;;16.33;7.38;;;-1.00;66.30;;;;;;4995226;28;20520;-86
2022/03/12 00:03:54;;;;;;;10.73;6.30;;;-1.00;66.50;;;;;;4994817;28;20211;-90
2022/03/12 00:06:22;;;;;;;14.20;7.82;;;-1.00;66.60;;;;;;4993897;28;20661;-86
2022/03/12 00:08:51;;;;;;;10.32;6.20;;;-1.10;66.60;;;;;;4994572;28;20235;-86
2022/03/12 00:11:20;;;;;;;12.75;7.95;;;-1.10;66.70;;;;;;4998242;28;20226;-90
2022/03/12 00:13:48;;;;;;;12.10;7.50;;;-1.10;66.90;;;;;;4999352;28;20250;-89
2022/03/12 00:16:22;;;;;;;10.60;6.75;;;-1.20;66.80;;;;;;4998544;28;20179;-89
2022/03/12 00:18:52;;;;;;;10.95;6.25;;;-1.20;67.30;;;;;;4997565;28;20309;-85
2022/03/12 00:21:18;;;;;;;14.80;7.47;;;-1.30;67.30;;;;;;4998685;28;20211;-90
2022/03/12 00:23:45;;;;;;;10.60;6.80;;;-1.30;67.30;;;;;;5000211;28;20688;-89
2022/03/12 00:26:13;;;;;;;12.45;7.05;;;-1.40;67.40;;;;;;4999779;28;20255;-90
2022/03/12 00:28:38;;;;;;;12.52;7.50;;;-1.40;67.60;;;;;;4998595;28;20737;-85
2022/03/12 00:31:04;;;;;;;10.33;6.80;;;-1.50;67.50;;;;;;4998309;28;20222;-89
2022/03/12 00:33:30;;;;;;;11.83;7.27;;;-1.50;68.10;;;;;;4998705;28;20246;-86
2022/03/12 00:35:56;;;;;;;14.00;6.80;;;-1.50;68.30;;;;;;4998950;28;20180;-89
2022/03/12 00:38:22;;;;;;;10.63;7.13;;;-1.50;67.90;;;;;;5000787;28;20472;-86
2022/03/12 00:40:49;;;;;;;14.98;8.13;;;-1.50;68.30;;;;;;4998441;28;20172;-85
2022/03/12 00:43:15;;;;;;;12.20;6.82;;;-1.50;68.40;;;;;;4999013;28;20204;-85
2022/03/12 00:45:42;;;;;;;15.15;7.82;;;-1.50;68.50;;;;;;5002565;28;20251;-85
2022/03/12 00:48:08;;;;;;;11.27;7.38;;;-1.50;68.60;;;;;;5007777;28;20190;-87
2022/03/12 00:50:34;;;;;;;12.05;7.88;;;-1.50;68.50;;;;;;5000762;28;20236;-90
2022/03/12 00:53:00;;;;;;;12.07;7.97;;;-1.50;68.70;;;;;;4996709;28;20234;-86
2022/03/12 00:55:26;;;;;;;13.32;8.05;;;-1.50;68.80;;;;;;4996803;28;20176;-86
2022/03/12 00:57:51;;;;;;;17.90;8.93;;;-1.60;68.90;;;;;;4997074;28;20219;-86
2022/03/12 01:00:20;;;;;;;11.70;8.10;;;-1.60;69.00;;;;;;4997560;28;20405;-85
2022/03/12 01:02:46;;;;;;;11.30;7.90;;;-1.60;69.00;;;;;;4997539;28;20364;-90
2022/03/12 01:05:16;;;;;;;17.08;8.45;;;-1.60;69.10;;;;;;4995940;28;20176;-86
2022/03/12 01:07:42;;;;;;;12.93;7.90;;;-1.60;69.30;;;;;;4995682;28;20267;-85
2022/03/12 01:10:09;;;;;;;11.00;7.75;;;-1.60;69.20;;;;;;4996280;28;20183;-89
2022/03/12 01:12:35;;;;;;;13.13;8.40;;;-1.70;69.40;;;;;;4997664;28;20219;-86
2022/03/12 01:15:02;;;;;;;10.65;8.30;;;-1.70;69.40;;;;;;4997340;28;20176;-85
2022/03/12 01:17:28;;;;;;;10.68;7.45;;;-1.70;69.60;;;;;;4997580;28;20203;-87
2022/03/12 01:19:53;;;;;;;14.30;8.70;;;-1.70;69.60;;;;;;4995519;28;20187;-84
2022/03/12 01:22:23;;;;;;;14.77;7.63;;;-1.70;69.50;;;;;;4997581;28;20482;-88
2022/03/12 01:24:49;;;;;;;10.27;8.18;;;-1.80;69.30;;;;;;4996108;28;20182;-90
2022/03/12 01:27:15;;;;;;;13.52;8.30;;;-1.80;69.80;;;;;;4996223;28;20627;-90
2022/03/12 01:29:45;;;;;;;13.23;8.57;;;-1.80;69.80;;;;;;4996734;28;20172;-89
2022/03/12 01:32:11;;;;;;;12.18;8.90;;;-1.90;69.90;;;;;;4996842;28;20514;-90
2022/03/12 01:34:37;;;;;;;13.07;8.35;;;-1.90;69.90;;;;;;4996043;28;20207;-90
2022/03/12 01:37:04;;;;;;;12.50;9.00;;;-1.90;70.10;;;;;;4997487;28;20223;-86
2022/03/12 01:39:30;;;;;;;11.93;7.90;;;-2.00;70.20;;;;;;4996285;28;20175;-85
2022/03/12 01:41:56;;;;;;;13.60;8.75;;;-2.00;70.50;;;;;;4997874;28;20625;-89
2022/03/12 01:44:23;;;;;;;11.90;7.50;;;-2.00;70.50;;;;;;4996708;28;20267;-85
2022/03/12 01:46:49;;;;;;;11.50;8.30;;;-2.00;70.90;;;;;;4997622;28;20392;-86
2022/03/12 01:49:18;;;;;;;11.65;8.18;;;-2.10;70.90;;;;;;4996684;28;20226;-89
2022/03/12 01:51:46;;;;;;;13.00;8.07;;;-2.10;71.20;;;;;;5001920;28;20215;-85
2022/03/12 01:54:16;;;;;;;13.05;8.40;;;-2.20;71.50;;;;;;4997242;28;20318;-85
2022/03/12 01:56:42;;;;;;;10.23;6.72;;;-2.30;71.50;;;;;;4996223;28;20582;-85
2022/03/12 01:59:08;;;;;;;10.43;8.10;;;-2.30;71.60;;;;;;4995588;28;20271;-86
2022/03/12 02:01:34;;;;;;;9.60;7.90;;;-2.30;71.90;;;;;;4997194;28;20209;-86
2022/03/12 02:04:00;;;;;;;15.50;8.43;;;-2.40;72.00;;;;;;4995422;28;20557;-86
2022/03/12 02:06:26;;;;;;;11.35;9.15;;;-2.40;72.40;;;;;;4995193;28;20187;-85
2022/03/12 02:08:55;;;;;;;11.00;8.40;;;-2.50;72.60;;;;;;4996074;28;20297;-85
2022/03/12 02:11:27;;;;;;;10.68;8.05;;;-2.50;73.00;;;;;;4994734;28;20190;-90
2022/03/12 02:14:03;;;;;;;9.85;8.35;;;-2.50;73.30;;;;;;4996417;28;20203;-86
2022/03/12 02:16:30;;;;;;;17.05;9.43;;;-2.50;73.10;;;;;;4996700;28;20194;-85
2022/03/12 02:18:55;;;;;;;13.77;8.70;;;-2.60;73.00;;;;;;4996307;28;20239;-90
2022/03/12 02:21:43;;;;;;;11.20;7.80;;;-2.70;73.00;;;;;;4996301;28;20191;-89
2022/03/12 02:24:16;;;;;;;12.73;7.93;;;-2.70;73.60;;;;;;4998008;28;20649;-90
2022/03/12 02:26:44;;;;;;;20.67;10.32;;;-2.70;73.60;;;;;;4996640;28;20176;-86
2022/03/12 02:29:12;;;;;;;13.75;7.63;;;-2.80;73.60;;;;;;4996861;28;20292;-90
2022/03/12 02:31:43;;;;;;;11.98;8.10;;;-2.70;73.90;;;;;;4994946;28;20207;-85
2022/03/12 02:34:10;;;;;;;14.82;8.77;;;-2.70;73.80;;;;;;4995233;28;20204;-86
2022/03/12 02:36:37;;;;;;;13.07;8.20;;;-2.80;73.30;;;;;;4997079;28;20192;-90
2022/03/12 02:39:05;;;;;;;12.02;8.68;;;-2.80;73.50;;;;;;5006450;28;20191;-85
2022/03/12 02:41:31;;;;;;;14.63;8.98;;;-2.80;73.40;;;;;;4996858;28;20172;-89
2022/03/12 02:43:58;;;;;;;12.63;8.05;;;-2.80;73.30;;;;;;5012156;28;20550;-86
2022/03/12 02:46:28;;;;;;;10.68;7.22;;;-2.90;73.60;;;;;;5012803;28;20728;-85
2022/03/12 02:48:56;;;;;;;10.02;7.45;;;-2.90;73.80;;;;;;4998165;28;20204;-90
2022/03/12 02:51:22;;;;;;;13.50;7.95;;;-2.90;74.00;;;;;;5014407;28;20176;-86
2022/03/12 02:53:56;;;;;;;10.70;7.22;;;-2.90;74.20;;;;;;5013077;28;20302;-86
2022/03/12 02:56:25;;;;;;;12.50;8.38;;;-3.00;74.80;;;;;;5012845;28;20283;-85
2022/03/12 02:58:52;;;;;;;13.35;7.80;;;-3.00;74.00;;;;;;5026385;28;20204;-87
2022/03/12 03:01:18;;;;;;;14.95;9.02;;;-3.00;74.50;;;;;;5003287;28;20231;-89
2022/03/12 03:03:46;;;;;;;10.80;7.10;;;-3.00;74.30;;;;;;5011149;28;20208;-86
2022/03/12 03:06:15;;;;;;;14.18;8.30;;;-3.00;74.10;;;;;;5010034;28;20180;-89
2022/03/12 03:08:44;;;;;;;13.32;9.00;;;-3.00;74.20;;;;;;4994930;28;20697;-89
2022/03/12 03:11:16;;;;;;;12.52;7.55;;;-3.00;74.20;;;;;;5010395;28;20211;-89
2022/03/12 03:13:44;;;;;;;13.93;8.93;;;-3.00;74.50;;;;;;5010790;28;20661;-90
2022/03/12 03:16:21;;;;;;;12.15;7.90;;;-3.00;74.50;;;;;;4993820;28;20176;-85
2022/03/12 03:18:52;;;;;;;13.23;7.82;;;-3.00;74.60;;;;;;4995552;28;20262;-85
2022/03/12 03:21:23;;;;;;;13.77;8.73;;;-3.00;74.60;;;;;;4995555;28;20196;-90
2022/03/12 03:23:49;;;;;;;12.48;8.52;;;-3.00;74.70;;;;;;5010587;28;20564;-85
2022/03/12 03:26:38;;;;;;;10.25;7.32;;;-2.90;74.60;;;;;;4995478;28;20176;-85
2022/03/12 03:29:05;;;;;;;13.75;7.95;;;-2.90;74.60;;;;;;5010391;28;20247;-85
2022/03/12 03:31:31;;;;;;;13.95;7.88;;;-2.90;74.10;;;;;;4994704;28;20246;-88
2022/03/12 03:33:56;;;;;;;13.87;9.30;;;-3.00;74.10;;;;;;4995973;28;20258;-90
2022/03/12 03:36:23;;;;;;;13.37;9.43;;;-3.00;74.50;;;;;;4994425;28;20179;-89
2022/03/12 03:38:48;;;;;;;16.25;9.40;;;-3.00;74.70;;;;;;5005440;28;20210;-86
2022/03/12 03:41:52;;;;;;;16.90;10.20;;;-3.00;74.70;;;;;;4996105;28;20617;-86
2022/03/12 03:44:26;;;;;;;14.45;9.23;;;-3.00;74.50;;;;;;5012691;28;20414;-86
2022/03/12 03:46:52;;;;;;;15.38;9.27;;;-2.90;74.50;;;;;;4993576;28;20171;-89
2022/03/12 03:49:18;;;;;;;14.20;9.40;;;-3.00;74.30;;;;;;4993590;28;20187;-89
2022/03/12 03:51:44;;;;;;;15.47;9.40;;;-3.00;74.70;;;;;;4993412;28;20473;-86
2022/03/12 03:54:13;;;;;;;123.50;42.63;;;-3.00;74.70;;;;;;4994001;28;20183;-86
2022/03/12 03:56:39;;;;;;;462.52;136.93;;;-3.00;74.70;;;;;;4994490;28;20410;-85
2022/03/12 03:59:06;;;;;;;822.22;266.00;;;-3.10;74.70;;;;;;5010233;28;20226;-86
2022/03/12 04:01:32;;;;;;;554.33;192.07;;;-3.10;74.80;;;;;;5010112;28;20186;-88
2022/03/12 04:03:58;;;;;;;330.95;139.13;;;-3.10;75.00;;;;;;4993766;28;20207;-90
2022/03/12 04:06:25;;;;;;;863.65;274.13;;;-3.10;75.10;;;;;;4993975;28;20203;-86
2022/03/12 04:08:53;;;;;;;1143.28;340.75;;;-3.20;75.00;;;;;;4994429;28;20239;-85
2022/03/12 04:11:23;;;;;;;1083.13;316.90;;;-3.20;75.20;;;;;;4993823;28;20238;-89
2022/03/12 04:13:51;;;;;;;1530.75;432.20;;;-3.20;75.60;;;;;;4993601;28;20243;-86
2022/03/12 04:16:18;;;;;;;857.67;219.25;;;-3.20;75.60;;;;;;4994288;28;20183;-85
2022/03/12 04:18:47;;;;;;;812.05;206.23;;;-3.20;75.60;;;;;;5000774;28;20720;-87
2022/03/12 04:21:14;;;;;;;424.40;105.60;;;-3.30;75.80;;;;;;4994062;28;20559;-89
2022/03/12 04:23:41;;;;;;;913.88;233.20;;;-3.30;75.80;;;;;;4993552;28;20691;-90
2022/03/12 04:26:09;;;;;;;655.00;167.65;;;-3.40;75.90;;;;;;4994431;28;20168;-85
2022/03/12 04:28:35;;;;;;;1108.55;311.55;;;-3.40;76.10;;;;;;4995978;28;20277;-93
2022/03/12 04:31:03;;;;;;;857.55;256.17;;;-3.50;76.20;;;;;;4994807;28;20578;-89
2022/03/12 04:33:30;;;;;;;843.25;248.48;;;-3.50;76.20;;;;;;4993715;28;20231;-86
2022/03/12 04:35:57;;;;;;;959.20;316.63;;;-3.50;76.30;;;;;;4994493;28;20172;-89
2022/03/12 04:38:25;;;;;;;520.88;156.65;;;-3.50;76.70;;;;;;4994772;28;20692;-86
2022/03/12 04:40:51;;;;;;;33.92;16.23;;;-3.50;76.80;;;;;;4994634;28;20661;-90
2022/03/12 04:43:17;;;;;;;16.85;10.63;;;-3.50;76.50;;;;;;4995459;28;20215;-90
2022/03/12 04:45:45;;;;;;;45.75;20.65;;;-3.50;76.30;;;;;;4993726;28;20184;-89
2022/03/12 04:48:13;;;;;;;45.70;21.60;;;-3.60;76.30;;;;;;4994522;28;20676;-84
2022/03/12 04:50:39;;;;;;;46.35;23.88;;;-3.60;76.70;;;;;;4993092;28;20183;-84
2022/03/12 04:53:05;;;;;;;31.77;15.60;;;-3.60;77.10;;;;;;4995679;28;20270;-86
2022/03/12 04:55:31;;;;;;;48.70;22.80;;;-3.70;77.00;;;;;;4994715;28;20180;-86
2022/03/12 04:57:57;;;;;;;22.63;13.93;;;-3.70;77.00;;;;;;4998443;28;20223;-85
2022/03/12 05:00:25;;;;;;;21.05;10.50;;;-3.70;77.10;;;;;;4998355;28;20206;-90
2022/03/12 05:03:01;;;;;;;14.48;9.82;;;-3.80;77.00;;;;;;4997403;28;20203;-90
2022/03/12 05:05:27;;;;;;;16.40;11.02;;;-3.80;77.50;;;;;;4998791;28;20207;-90
2022/03/12 05:07:57;;;;;;;14.60;10.70;;;-3.80;77.30;;;;;;4996940;28;20255;-89
2022/03/12 05:10:24;;;;;;;23.10;13.18;;;-3.80;77.40;;;;;;4998462;28;20172;-86
2022/03/12 05:12:50;;;;;;;19.92;11.98;;;-3.80;77.20;;;;;;5000254;28;20262;-89
2022/03/12 05:15:17;;;;;;;27.23;13.68;;;-3.80;77.20;;;;;;4999875;28;20191;-88
2022/03/12 05:17:47;;;;;;;22.35;12.20;;;-3.90;77.30;;;;;;5002820;28;20639;-85
2022/03/12 05:20:19;;;;;;;29.13;16.10;;;-3.90;77.50;;;;;;4997247;28;20168;-85
2022/03/12 05:22:46;;;;;;;23.33;14.45;;;-3.80;77.90;;;;;;4996141;28;20211;-90
2022/03/12 05:25:12;;;;;;;23.90;12.80;;;-3.90;77.80;;;;;;4996532;28;20330;-85
2022/03/12 05:27:38;;;;;;;19.02;12.85;;;-3.90;78.10;;;;;;4995707;28;20203;-89
2022/03/12 05:30:05;;;;;;;21.87;12.40;;;-3.90;78.10;;;;;;4996124;28;20207;-85
2022/03/12 05:32:31;;;;;;;20.25;11.20;;;-3.90;77.80;;;;;;4996944;28;20460;-89
2022/03/12 05:34:56;;;;;;;20.17;13.87;;;-3.90;77.80;;;;;;4997240;28;20547;-89
2022/03/12 05:37:22;;;;;;;40.33;22.30;;;-4.00;78.00;;;;;;4997190;28;20437;-86
2022/03/12 05:39:51;;;;;;;38.90;22.27;;;-4.00;78.10;;;;;;4997008;28;20186;-89
2022/03/12 05:42:20;;;;;;;40.95;20.20;;;-3.90;78.50;;;;;;4996268;28;20712;-85
2022/03/12 05:44:46;;;;;;;23.23;15.15;;;-3.90;78.50;;;;;;4995844;28;20179;-85
2022/03/12 05:47:12;;;;;;;21.25;11.20;;;-3.80;78.50;;;;;;4995801;28;20204;-85
2022/03/12 05:49:37;;;;;;;24.90;12.33;;;-3.70;78.60;;;;;;4996922;28;20187;-85
2022/03/12 05:52:04;;;;;;;31.20;20.50;;;-3.70;78.30;;;;;;5011660;28;20226;-85
2022/03/12 05:54:29;;;;;;;23.10;14.85;;;-3.70;78.30;;;;;;5012146;28;20180;-85
2022/03/12 05:56:56;;;;;;;22.97;14.33;;;-3.60;78.50;;;;;;4996418;28;20187;-85
2022/03/12 05:59:22;;;;;;;20.30;14.70;;;-3.60;78.40;;;;;;5013555;28;20226;-85
2022/03/12 06:01:50;;;;;;;36.00;19.50;;;-3.50;78.40;;;;;;5013580;28;20699;-89
2022/03/12 06:04:25;;;;;;;18.52;12.68;;;-3.50;78.80;;;;;;4999773;28;20556;-89
2022/03/12 06:06:52;;;;;;;15.55;10.00;;;-3.40;79.00;;;;;;5002001;28;20279;-89
2022/03/12 06:09:18;;;;;;;15.55;10.30;;;-3.30;79.00;;;;;;5011146;28;20290;-89
2022/03/12 06:11:45;;;;;;;16.07;10.77;;;-3.30;78.90;;;;;;4995019;28;20215;-88
2022/03/12 06:14:16;;;;;;;18.10;10.43;;;-3.20;78.70;;;;;;5011422;28;20421;-89
2022/03/12 06:16:46;;;;;;;16.77;9.75;;;-3.10;78.60;;;;;;4995418;28;20593;-86
2022/03/12 06:19:12;;;;;;;19.17;11.90;;;-3.00;78.10;;;;;;4996948;28;20255;-89
2022/03/12 06:21:37;;;;;;;13.57;9.87;;;-2.90;78.30;;;;;;4996198;28;20227;-85
2022/03/12 06:24:04;;;;;;;16.97;10.50;;;-2.80;78.20;;;;;;4997550;28;20400;-89
2022/03/12 06:26:35;;;;;;;17.77;10.75;;;-2.70;78.50;;;;;;5012001;28;20451;-88
2022/03/12 06:29:02;;;;;;;19.20;10.65;;;-2.60;78.30;;;;;;4996070;28;20677;-85
2022/03/12 06:31:28;;;;;;;20.58;11.35;;;-2.50;78.30;;;;;;4997486;28;20523;-89
2022/03/12 06:33:54;;;;;;;16.90;10.80;;;-2.40;78.00;;;;;;4997255;28;20275;-90
2022/03/12 06:36:22;;;;;;;13.70;9.55;;;-2.30;77.80;;;;;;5017663;28;20520;-85
2022/03/12 06:38:48;;;;;;;19.92;10.10;;;-2.20;77.40;;;;;;5003736;28;20238;-85
2022/03/12 06:41:14;;;;;;;12.05;9.18;;;-2.20;77.30;;;;;;4995498;28;20180;-85
2022/03/12 06:43:42;;;;;;;15.03;9.57;;;-2.10;77.20;;;;;;4995101;28;20611;-85
2022/03/12 06:46:13;;;;;;;16.90;9.80;;;-2.00;76.80;;;;;;4995375;28;20263;-89
2022/03/12 06:48:39;;;;;;;19.55;9.60;;;-1.90;76.50;;;;;;5003069;28;20204;-86
2022/03/12 06:51:06;;;;;;;16.58;9.50;;;-1.80;76.50;;;;;;4992998;28;20184;-89
2022/03/12 06:53:32;;;;;;;12.43;8.68;;;-1.70;76.50;;;;;;5002295;28;20223;-89
2022/03/12 06:55:59;;;;;;;14.80;9.60;;;-1.60;76.40;;;;;;5014568;28;20241;-85
2022/03/12 06:58:25;;;;;;;11.52;8.73;;;-1.50;76.50;;;;;;5014172;28;20229;-89
2022/03/12 07:00:52;;;;;;;13.82;9.75;;;-1.40;76.50;;;;;;5013345;28;20266;-86
2022/03/12 07:03:17;;;;;;;12.32;8.82;;;-1.30;76.30;;;;;;5013697;28;20229;-85
2022/03/12 07:05:43;;;;;;;14.73;8.97;;;-1.10;75.60;;;;;;5014795;28;20179;-85
2022/03/12 07:08:09;;;;;;;14.03;9.60;;;-1.00;75.70;;;;;;5014228;28;20464;-88
2022/03/12 07:10:35;;;;;;;13.23;8.47;;;-0.90;74.80;;;;;;5014876;28;20266;-90
2022/03/12 07:13:00;;;;;;;10.70;8.63;;;-0.80;75.10;;;;;;5015051;28;20484;-86
2022/03/12 07:15:26;;;;;;;20.87;8.70;;;-0.60;74.80;;;;;;5016899;28;20408;-89
2022/03/12 07:17:52;;;;;;;13.00;9.00;;;-0.50;74.70;;;;;;5014138;28;20723;-85
2022/03/12 07:20:18;;;;;;;13.37;9.37;;;-0.40;74.20;;;;;;5015298;28;20494;-86
2022/03/12 07:22:45;;;;;;;14.40;8.70;;;-0.30;73.90;;;;;;5015477;28;20268;-90
2022/03/12 07:25:12;;;;;;;13.27;9.73;;;-0.10;74.10;;;;;;5015297;28;20550;-89
2022/03/12 07:27:39;;;;;;;14.00;8.75;;;0.00;72.80;;;;;;5016472;28;20221;-89
2022/03/12 07:30:06;;;;;;;13.80;8.50;;;0.20;72.70;;;;;;5025026;28;20332;-86
2022/03/12 07:32:32;;;;;;;16.55;10.18;;;0.30;72.10;;;;;;5013156;28;20222;-90
2022/03/12 07:34:58;;;;;;;11.87;8.70;;;0.50;72.30;;;;;;5014637;28;20178;-86
2022/03/12 07:37:24;;;;;;;10.15;8.25;;;0.60;71.90;;;;;;5013422;28;20430;-85
2022/03/12 07:39:49;;;;;;;14.03;9.77;;;0.80;71.70;;;;;;4994768;28;20184;-86
2022/03/12 07:42:15;;;;;;;18.90;8.97;;;0.90;71.70;;;;;;4993716;28;20501;-86
2022/03/12 07:44:41;;;;;;;11.83;8.07;;;1.10;71.50;;;;;;4993573;28;20399;-89
2022/03/12 07:47:08;;;;;;;15.05;9.77;;;1.20;71.10;;;;;;4992643;28;20519;-83
2022/03/12 07:49:34;;;;;;;16.17;10.35;;;1.40;70.60;;;;;;4993234;28;20188;-88
2022/03/12 07:52:01;;;;;;;13.52;9.23;;;1.60;69.90;;;;;;4994961;28;20223;-85
2022/03/12 07:54:27;;;;;;;16.00;8.90;;;1.80;69.60;;;;;;4996808;28;20595;-85
2022/03/12 07:56:53;;;;;;;14.77;9.23;;;2.00;69.30;;;;;;4995150;28;20180;-90
2022/03/12 07:59:20;;;;;;;12.00;9.30;;;2.10;69.10;;;;;;4992443;28;20183;-89
2022/03/12 08:01:46;;;;;;;10.35;7.78;;;2.30;69.10;;;;;;4997732;28;20411;-88
2022/03/12 08:04:12;;;;;;;15.73;8.05;;;2.40;68.20;;;;;;5011997;28;20180;-90
2022/03/12 08:06:37;;;;;;;11.10;7.47;;;2.60;68.80;;;;;;5004164;28;20191;-85
2022/03/12 08:09:04;;;;;;;11.10;7.20;;;2.80;68.50;;;;;;4996270;28;20231;-85
2022/03/12 08:11:30;;;;;;;12.63;8.25;;;3.00;67.60;;;;;;4992011;28;20413;-84
2022/03/12 08:14:04;;;;;;;14.45;8.73;;;3.30;67.50;;;;;;4983124;28;20218;-86
2022/03/12 08:16:33;;;;;;;10.70;7.32;;;3.50;67.00;;;;;;4987161;28;20195;-84
2022/03/12 08:19:01;;;;;;;11.15;7.70;;;3.90;66.30;;;;;;5006116;28;20200;-84
2022/03/12 08:21:27;;;;;;;9.52;7.63;;;4.30;65.60;;;;;;4995744;28;20198;-84
2022/03/12 08:23:53;;;;;;;13.60;8.33;;;4.90;64.50;;;;;;5003132;28;20570;-89
2022/03/12 08:26:19;;;;;;;11.10;8.50;;;5.60;63.70;;;;;;4998222;28;20829;-85
2022/03/12 08:28:46;;;;;;;12.52;8.18;;;6.40;62.60;;;;;;4993283;28;20296;-89
2022/03/12 08:31:13;;;;;;;11.70;7.82;;;7.40;61.90;;;;;;4999275;28;20214;-88
2022/03/12 08:33:39;;;;;;;11.85;7.57;;;8.40;59.60;;;;;;4978940;28;20327;-89
2022/03/12 08:36:06;;;;;;;9.90;8.00;;;9.50;58.70;;;;;;4994677;28;20275;-88
2022/03/12 08:38:34;;;;;;;9.52;6.68;;;10.40;57.20;;;;;;4991514;28;20499;-88
2022/03/12 08:41:01;;;;;;;8.98;7.43;;;11.10;55.30;;;;;;4994505;28;20172;-85
2022/03/12 08:43:27;;;;;;;10.23;7.10;;;11.80;53.70;;;;;;4995578;28;20667;-85
2022/03/12 08:45:53;;;;;;;11.23;7.80;;;12.50;53.60;;;;;;5005794;28;20176;-88
2022/03/12 08:48:19;;;;;;;7.80;7.00;;;13.00;52.40;;;;;;4991047;28;20453;-89
2022/03/12 08:50:47;;;;;;;7.17;6.20;;;13.50;51.70;;;;;;5003099;28;20186;-89
2022/03/12 08:53:15;;;;;;;7.85;7.07;;;14.00;51.00;;;;;;4993146;28;20231;-85
2022/03/12 08:55:41;;;;;;;10.50;7.28;;;14.40;50.10;;;;;;4992176;28;20277;-85
2022/03/12 08:58:07;;;;;;;10.52;6.70;;;14.50;49.30;;;;;;4996592;28;20543;-85
2022/03/12 09:00:34;;;;;;;9.80;7.50;;;14.70;49.20;;;;;;4997648;28;20179;-85
2022/03/12 09:03:00;;;;;;;11.30;7.20;;;14.90;48.50;;;;;;4998554;28;20456;-85
2022/03/12 09:05:26;;;;;;;15.73;7.68;;;15.00;48.60;;;;;;4983002;28;20237;-88
2022/03/12 09:07:52;;;;;;;8.63;6.80;;;15.40;48.40;;;;;;5006690;28;20630;-89
2022/03/12 09:10:20;;;;;;;10.30;7.23;;;15.60;48.10;;;;;;5017288;28;20199;-89
2022/03/12 09:12:46;;;;;;;7.53;6.30;;;15.90;47.80;;;;;;5004696;28;20481;-86
2022/03/12 09:15:13;;;;;;;22.43;15.80;;;15.90;46.90;;;;;;5003333;28;20775;-88
2022/03/12 09:17:40;;;;;;;9.60;7.30;;;16.00;47.90;;;;;;4999820;28;20450;-89
2022/03/12 09:20:07;;;;;;;9.03;7.00;;;16.10;46.90;;;;;;4979996;28;20431;-85
2022/03/12 09:22:34;;;;;;;9.37;6.30;;;16.30;47.30;;;;;;4985660;28;20461;-89
2022/03/12 09:25:01;;;;;;;10.67;9.53;;;16.50;47.00;;;;;;4989035;28;20417;-90
2022/03/12 09:27:27;;;;;;;11.67;9.57;;;16.70;46.40;;;;;;4994419;28;20466;-90
2022/03/12 09:29:53;;;;;;;9.80;8.63;;;16.70;45.50;;;;;;5008466;28;20414;-84
2022/03/12 09:32:20;;;;;;;14.43;13.00;;;16.60;45.60;;;;;;4991676;28;20493;-89
2022/03/12 09:34:46;;;;;;;11.77;10.50;;;16.80;44.30;;;;;;4997160;28;20179;-85
2022/03/12 09:37:12;;;;;;;15.90;14.33;;;16.80;44.00;;;;;;5004758;28;20452;-85
2022/03/12 09:39:38;;;;;;;9.37;7.97;;;16.70;44.00;;;;;;4997623;28;20416;-85
2022/03/12 09:42:04;;;;;;;7.80;6.50;;;16.50;44.00;;;;;;4997050;28;20655;-90
2022/03/12 09:44:30;;;;;;;14.30;12.03;;;16.10;43.60;;;;;;4996685;28;20425;-89
2022/03/12 09:46:57;;;;;;;8.07;6.50;;;15.70;44.60;;;;;;4996412;28;20444;-88
2022/03/12 09:49:23;;;;;;;6.43;5.80;;;15.60;44.60;;;;;;4996471;28;20519;-90
2022/03/12 09:51:49;;;;;;;8.30;5.90;;;15.60;44.20;;;;;;5006145;28;21032;-89
2022/03/12 09:54:17;;;;;;;7.70;5.13;;;15.40;44.60;;;;;;4993418;28;20500;-89
2022/03/12 09:56:43;;;;;;;7.37;5.93;;;15.30;44.70;;;;;;4993098;28;20409;-90
2022/03/12 09:59:09;;;;;;;7.17;6.00;;;15.30;45.10;;;;;;4992233;28;20827;-85
2022/03/12 10:01:35;;;;;;;8.20;6.40;;;15.40;44.40;;;;;;4992282;28;20195;-89
2022/03/12 10:04:01;;;;;;;7.43;6.00;;;15.30;44.30;;;;;;4993394;28;20445;-89
2022/03/12 10:06:31;;;;;;;7.47;5.90;;;15.20;44.40;;;;;;4993557;28;20571;-85
2022/03/12 10:08:57;;;;;;;10.50;6.30;;;15.20;43.90;;;;;;4993147;28;20246;-85
2022/03/12 10:11:23;;;;;;;7.03;6.00;;;15.30;44.10;;;;;;4993262;28;20410;-84
2022/03/12 10:13:49;;;;;;;7.25;5.90;;;14.90;44.00;;;;;;4995881;28;20462;-87
2022/03/12 10:16:18;;;;;;;8.35;7.55;;;14.50;43.90;;;;;;4995005;28;20649;-85
2022/03/12 10:18:45;;;;;;;7.68;6.00;;;14.30;44.60;;;;;;4997235;28;20215;-86
2022/03/12 10:21:11;;;;;;;8.80;5.95;;;14.20;44.20;;;;;;4996473;28;20605;-85
2022/03/12 10:23:37;;;;;;;7.28;6.45;;;14.10;44.50;;;;;;5000606;28;20238;-85
2022/03/12 10:26:03;;;;;;;11.10;6.97;;;13.80;44.60;;;;;;5000304;28;20184;-88
2022/03/12 10:28:34;;;;;;;7.65;6.90;;;13.40;45.20;;;;;;4995978;28;20207;-88
2022/03/12 10:31:04;;;;;;;8.18;5.68;;;13.00;45.20;;;;;;4994129;28;20611;-85
2022/03/12 10:33:30;;;;;;;6.38;5.00;;;12.50;44.80;;;;;;4994272;28;20227;-89
2022/03/12 10:36:15;;;;;;;6.83;5.50;;;12.10;45.90;;;;;;4994523;28;20208;-85
2022/03/12 10:38:49;;;;;;;6.90;5.78;;;11.70;46.10;;;;;;4996482;28;20446;-85
2022/03/12 10:41:16;;;;;;;8.38;5.65;;;11.50;47.00;;;;;;4995038;28;20201;-85
2022/03/12 10:43:43;;;;;;;7.20;5.50;;;11.20;46.50;;;;;;4994987;28;20212;-85
2022/03/12 10:46:09;;;;;;;7.80;5.68;;;11.00;47.10;;;;;;4994770;28;20180;-86
2022/03/12 10:48:38;;;;;;;7.18;6.00;;;10.90;47.30;;;;;;4994798;28;20211;-89
2022/03/12 10:51:04;;;;;;;7.97;5.55;;;10.70;48.50;;;;;;4994680;28;20185;-88
2022/03/12 10:53:31;;;;;;;7.70;6.27;;;10.70;48.50;;;;;;4996116;28;20227;-86
2022/03/12 10:55:58;;;;;;;7.32;5.30;;;10.60;47.90;;;;;;4994750;28;20952;-88
2022/03/12 10:58:25;;;;;;;7.90;5.40;;;10.50;48.00;;;;;;4994812;28;20298;-90
2022/03/12 11:00:55;;;;;;;6.55;5.53;;;10.30;47.80;;;;;;4994502;28;20180;-89
2022/03/12 11:03:26;;;;;;;7.45;6.22;;;10.20;48.60;;;;;;4994965;28;20215;-89
2022/03/12 11:05:55;;;;;;;8.68;6.45;;;10.10;48.40;;;;;;4997121;28;20161;-89
2022/03/12 11:08:24;;;;;;;8.32;5.47;;;10.10;48.10;;;;;;4999046;28;20758;-86
2022/03/12 11:10:59;;;;;;;59.22;43.55;;;10.00;48.40;;;;;;4999643;28;20214;-85
2022/03/12 11:13:38;;;;;;;171.45;94.63;;;10.00;48.40;;;;;;4994066;28;20238;-89
2022/03/12 11:16:32;;;;;;;8.90;6.43;;;9.90;48.70;;;;;;4994139;28;20270;-90
2022/03/12 11:19:17;;;;;;;9.35;6.13;;;9.90;49.00;;;;;;4993689;28;20203;-89
2022/03/12 11:22:01;;;;;;;10.95;7.30;;;9.90;49.20;;;;;;4993419;28;20179;-89
2022/03/12 11:24:42;;;;;;;7.20;6.03;;;9.90;48.50;;;;;;4995177;28;20168;-90
2022/03/12 11:27:14;;;;;;;5.45;4.55;;;10.00;47.90;;;;;;4994311;28;20250;-86
2022/03/12 11:29:40;;;;;;;8.80;5.88;;;10.00;48.50;;;;;;4995148;28;20181;-85
2022/03/12 11:32:09;;;;;;;7.55;6.65;;;10.00;48.30;;;;;;4993680;28;20223;-86
2022/03/12 11:34:40;;;;;;;8.25;5.50;;;9.90;48.10;;;;;;4993541;28;20673;-85
2022/03/12 11:37:16;;;;;;;8.68;5.53;;;10.00;48.10;;;;;;4993531;28;20200;-90
2022/03/12 11:39:43;;;;;;;6.95;5.90;;;10.00;47.80;;;;;;4994030;28;20190;-89
2022/03/12 11:42:15;;;;;;;7.10;5.47;;;9.90;47.50;;;;;;4995663;28;20200;-89
2022/03/12 11:44:47;;;;;;;8.05;5.90;;;9.90;48.10;;;;;;4996277;28;20707;-86
2022/03/12 11:47:15;;;;;;;7.20;5.38;;;10.00;49.20;;;;;;4997093;28;20204;-85
2022/03/12 11:49:41;;;;;;;7.18;5.75;;;10.00;48.60;;;;;;5001843;28;20180;-89
2022/03/12 11:52:08;;;;;;;6.90;5.28;;;10.10;48.20;;;;;;4996106;28;20231;-90
2022/03/12 11:54:40;;;;;;;7.90;5.50;;;10.10;48.30;;;;;;4994573;28;20536;-89
2022/03/12 11:57:06;;;;;;;6.50;5.25;;;10.10;49.30;;;;;;4995656;28;20199;-90
2022/03/12 11:59:32;;;;;;;6.22;5.50;;;10.20;49.20;;;;;;4994173;28;20176;-89
2022/03/12 12:02:05;;;;;;;10.97;7.33;;;10.10;48.70;;;;;;4994332;28;20192;-86
2022/03/12 12:04:32;;;;;;;5.85;5.03;;;10.10;48.70;;;;;;4996532;28;20406;-89
2022/03/12 12:07:01;;;;;;;6.93;6.15;;;10.00;49.30;;;;;;4997795;28;20290;-90
2022/03/12 12:09:30;;;;;;;8.88;5.97;;;9.90;49.50;;;;;;4998922;28;20280;-90
2022/03/12 12:11:56;;;;;;;7.57;6.28;;;9.80;49.10;;;;;;4998055;28;20386;-88
2022/03/12 12:14:24;;;;;;;11.13;6.10;;;9.80;48.90;;;;;;4998884;28;20203;-86
2022/03/12 12:16:49;;;;;;;8.00;5.80;;;9.80;49.40;;;;;;4997740;28;20443;-85
2022/03/12 12:19:16;;;;;;;8.30;6.10;;;9.80;49.80;;;;;;4997704;28;20270;-85
2022/03/12 12:21:42;;;;;;;7.65;5.15;;;9.80;50.00;;;;;;4998147;28;20661;-89
2022/03/12 12:24:32;;;;;;;6.53;5.37;;;9.80;50.30;;;;;;4998081;28;20215;-85
2022/03/12 12:27:03;;;;;;;9.60;7.25;;;9.80;50.00;;;;;;4997938;28;20208;-85
2022/03/12 12:29:43;;;;;;;6.90;4.80;;;9.70;50.60;;;;;;4998091;28;20179;-89
2022/03/12 12:32:10;;;;;;;6.95;5.40;;;9.70;50.20;;;;;;4998745;28;20226;-90
2022/03/12 12:34:37;;;;;;;7.15;5.47;;;9.60;50.00;;;;;;4998571;28;20213;-89
2022/03/12 12:37:03;;;;;;;8.40;6.30;;;9.60;50.40;;;;;;4999085;28;20204;-90
2022/03/12 12:39:29;;;;;;;6.70;5.43;;;9.60;49.90;;;;;;4999057;28;20535;-86
2022/03/12 12:42:01;;;;;;;7.43;6.20;;;9.60;50.20;;;;;;5000273;28;20191;-86